Zim Vancouver — A8LK5 — position and weather

sailwx.info

Track history (hours):
 
Tides and Currents Weather Stations Pressure Air Temp Water Temp Dewpoint Dewpoint Depression Visibility Wind Speed Wind Dir Waves Ship Positions

Zim Vancouver

Last reported at 2016-Feb-08 12:00 UTC. Time now 2016-Feb-11 15:08 UTC.
Position N 42°36' W 052°06'.

Length 260 m; draft 12 m.

Type: Ship. MMSI: 636013214.

Wind from 090 at 9 knots

Waves 2.0 meters (7 feet), 6 second period

Barometer 1020.0 mb
Air temperature 5.0 ° C
Visibility: greater than 2.2 NM
Dewpoint 3.0 ° C

Date/timePositionNaut miles runAvg speedWind from/ knotsBaromVisibWave heightAir tempDewpointWater temp
2016-Feb-08 12:00N 42°36' W 052°06'54915.3 090 / 91020.0 2.2 2.0 5.0 3.0
2016-Feb-07 00:00N 39°18' W 040°48'19115.9 380 / 241027.010.8 17.014.0
2016-Feb-06 12:00N 39°06' W 036°42'12316.5 320 / 221030.010.8 2.018.015.0
2016-Feb-06 04:33N 38°54' W 034°05'7917.2
2016-Feb-06 00:00N 38°48' W 032°24'9314.5 250 / 191029.510.8 15.012.0
2016-Feb-05 17:33N 38°31' W 030°26'1615.8
2016-Feb-05 16:33N 38°29' W 030°06'1616.0
2016-Feb-05 15:33N 38°27' W 029°46'1615.8
2016-Feb-05 14:33N 38°25' W 029°26'1615.9
2016-Feb-05 13:33N 38°23' W 029°06'1615.7
2016-Feb-05 12:33N 38°21' W 028°46'1616.0
2016-Feb-05 11:34N 38°19' W 028°26'1616.4
2016-Feb-05 10:33N 38°17' W 028°05'1616.1
2016-Feb-05 09:33N 38°15' W 027°45'1616.0
2016-Feb-05 08:33N 38°13' W 027°25'1616.2
2016-Feb-05 07:34N 38°10' W 027°04'1616.3
2016-Feb-05 06:34N 38°08' W 026°44'1616.0
2016-Feb-05 05:33N 38°06' W 026°24'1616.1
2016-Feb-05 04:33N 38°04' W 026°03'1615.8
2016-Feb-05 03:34N 38°02' W 025°44'1616.2
2016-Feb-05 02:34N 38°00' W 025°23'1615.6
2016-Feb-05 01:33N 37°58' W 025°04'1615.6
2016-Feb-05 00:34N 37°56' W 024°44'1119.7
2016-Feb-05 00:00N 37°54' W 024°30'4 9.8 170 / 51029.010.8 17.015.0
2016-Feb-04 23:33N 37°54' W 024°25'1616.0
2016-Feb-04 22:33N 37°52' W 024°04'1716.1
2016-Feb-04 21:31N 37°50' W 023°43'15416.2
2016-Feb-04 12:00N 37°30' W 020°30'50816.7 050 / 151033.010.8 1.016.014.0
2016-Feb-03 05:30N 36°22' W 010°00'1515.9
2016-Feb-03 04:33N 36°20' W 009°41'1716.2
2016-Feb-03 03:30N 36°17' W 009°21'1515.8
2016-Feb-03 02:33N 36°15' W 009°02'1616.3
2016-Feb-03 01:33N 36°13' W 008°42'1716.6
2016-Feb-03 00:33N 36°11' W 008°22'1514.6
2016-Feb-02 23:32N 36°09' W 008°04'2015.5
2016-Feb-02 22:15N 36°07' W 007°39'1216.5
2016-Feb-02 21:30N 36°05' W 007°24'1414.7
2016-Feb-02 20:33N 36°04' W 007°07'72 5.9
2016-Feb-02 08:15N 35°58' W 005°38'913.2
2016-Feb-02 07:34N 36°01' W 005°27'1212.2
2016-Feb-02 06:34N 36°03' W 005°12'21113.8
2016-Feb-01 15:12N 37°13' W 001°04'914.3
2016-Feb-01 14:33N 37°19' W 000°55'1414.3
2016-Feb-01 13:34N 37°28' W 000°42'1414.0
2016-Feb-01 12:33N 37°39' W 000°30'1413.6
2016-Feb-01 11:33N 37°50' W 000°21'1413.6
2016-Feb-01 10:33N 38°02' W 000°11'1716.6
2016-Feb-01 09:33N 38°15' E 000°00'7312.2
2016-Feb-01 03:34N 39°27' W 000°19'0 0.1
2016-Feb-01 02:31N 39°27' W 000°19'0 0.0
2016-Feb-01 01:31N 39°27' W 000°19'0 0.0
2016-Feb-01 00:31N 39°27' W 000°19'0 0.0
2016-Jan-31 23:31N 39°27' W 000°19'0 0.0
2016-Jan-31 22:31N 39°27' W 000°19'0 0.0
2016-Jan-31 21:31N 39°27' W 000°19'0 0.0
2016-Jan-31 20:31N 39°27' W 000°19'0 0.0
2016-Jan-31 19:31N 39°27' W 000°19'0 0.0
2016-Jan-31 18:31N 39°27' W 000°19'0 0.0
2016-Jan-31 17:31N 39°27' W 000°19'0 0.0
2016-Jan-31 16:31N 39°27' W 000°19'6 5.9
2016-Jan-31 15:33N 39°27' W 000°12'3413.7
2016-Jan-31 13:05N 39°50' E 000°20'713.6
2016-Jan-31 12:33N 39°55' E 000°27'1313.4
2016-Jan-31 11:33N 40°05' E 000°40'1313.5
2016-Jan-31 10:33N 40°14' E 000°52'1313.1
2016-Jan-31 09:33N 40°22' E 001°05'1413.6
2016-Jan-31 08:33N 40°31' E 001°19'1613.9
2016-Jan-31 07:23N 40°42' E 001°35'1214.1
2016-Jan-31 06:33N 40°52' E 001°44'1413.6
2016-Jan-31 05:33N 41°02' E 001°55'1413.9
2016-Jan-31 04:34N 41°13' E 002°07'8 1.6
2016-Jan-30 23:29N 41°21' E 002°10'0 0.0
2016-Jan-30 18:29N 41°21' E 002°10'0 0.1
2016-Jan-30 17:34N 41°21' E 002°10'7 7.1
2016-Jan-30 16:33N 41°14' E 002°07'1414.3
2016-Jan-30 15:33N 41°09' E 001°49'1814.4
2016-Jan-30 14:18N 41°04' E 001°26'7 0.8
2016-Jan-30 05:14N 41°03' E 001°17'1015.5
2016-Jan-30 04:33N 41°04' E 001°30'1515.4
2016-Jan-30 03:33N 41°07' E 001°50'1615.6
2016-Jan-30 02:33N 41°10' E 002°11'1515.5
2016-Jan-30 01:33N 41°16' E 002°29'1715.8
2016-Jan-30 00:29N 41°24' E 002°49'1415.4
2016-Jan-29 23:33N 41°31' E 003°06'1615.7
2016-Jan-29 22:33N 41°38' E 003°25'  
Track history (hours):
 
Tides and Currents Weather Stations Pressure Air Temp Water Temp Dewpoint Dewpoint Depression Visibility Wind Speed Wind Dir Waves Ship Positions

Zim Vancouver

Last reported at 2016-Feb-08 12:00 UTC. Time now 2016-Feb-11 15:08 UTC.
Position N 42°36' W 052°06'.

Length 260 m; draft 12 m.

Type: Ship. MMSI: 636013214.

Wind from 090 at 9 knots

Waves 2.0 meters (7 feet), 6 second period

Barometer 1020.0 mb
Air temperature 5.0 ° C
Visibility: greater than 2.2 NM
Dewpoint 3.0 ° C

Date/timePositionNaut miles runAvg speedWind from/ knotsBaromVisibWave heightAir tempDewpointWater temp
2016-Feb-08 12:00N 42°36' W 052°06'54915.3 090 / 91020.0 2.2 2.0 5.0 3.0
2016-Feb-07 00:00N 39°18' W 040°48'19115.9 380 / 241027.010.8 17.014.0
2016-Feb-06 12:00N 39°06' W 036°42'12316.5 320 / 221030.010.8 2.018.015.0
2016-Feb-06 04:33N 38°54' W 034°05'7917.2
2016-Feb-06 00:00N 38°48' W 032°24'9314.5 250 / 191029.510.8 15.012.0
2016-Feb-05 17:33N 38°31' W 030°26'1615.8
2016-Feb-05 16:33N 38°29' W 030°06'1616.0
2016-Feb-05 15:33N 38°27' W 029°46'1615.8
2016-Feb-05 14:33N 38°25' W 029°26'1615.9
2016-Feb-05 13:33N 38°23' W 029°06'1615.7
2016-Feb-05 12:33N 38°21' W 028°46'1616.0
2016-Feb-05 11:34N 38°19' W 028°26'1616.4
2016-Feb-05 10:33N 38°17' W 028°05'1616.1
2016-Feb-05 09:33N 38°15' W 027°45'1616.0
2016-Feb-05 08:33N 38°13' W 027°25'1616.2
2016-Feb-05 07:34N 38°10' W 027°04'1616.3
2016-Feb-05 06:34N 38°08' W 026°44'1616.0
2016-Feb-05 05:33N 38°06' W 026°24'1616.1
2016-Feb-05 04:33N 38°04' W 026°03'1615.8
2016-Feb-05 03:34N 38°02' W 025°44'1616.2
2016-Feb-05 02:34N 38°00' W 025°23'1615.6
2016-Feb-05 01:33N 37°58' W 025°04'1615.6
2016-Feb-05 00:34N 37°56' W 024°44'1119.7
2016-Feb-05 00:00N 37°54' W 024°30'4 9.8 170 / 51029.010.8 17.015.0
2016-Feb-04 23:33N 37°54' W 024°25'1616.0
2016-Feb-04 22:33N 37°52' W 024°04'1716.1
2016-Feb-04 21:31N 37°50' W 023°43'15416.2
2016-Feb-04 12:00N 37°30' W 020°30'50816.7 050 / 151033.010.8 1.016.014.0
2016-Feb-03 05:30N 36°22' W 010°00'1515.9
2016-Feb-03 04:33N 36°20' W 009°41'1716.2
2016-Feb-03 03:30N 36°17' W 009°21'1515.8
2016-Feb-03 02:33N 36°15' W 009°02'1616.3
2016-Feb-03 01:33N 36°13' W 008°42'1716.6
2016-Feb-03 00:33N 36°11' W 008°22'1514.6
2016-Feb-02 23:32N 36°09' W 008°04'2015.5
2016-Feb-02 22:15N 36°07' W 007°39'1216.5
2016-Feb-02 21:30N 36°05' W 007°24'1414.7
2016-Feb-02 20:33N 36°04' W 007°07'72 5.9
2016-Feb-02 08:15N 35°58' W 005°38'913.2
2016-Feb-02 07:34N 36°01' W 005°27'1212.2
2016-Feb-02 06:34N 36°03' W 005°12'21113.8
2016-Feb-01 15:12N 37°13' W 001°04'914.3
2016-Feb-01 14:33N 37°19' W 000°55'1414.3
2016-Feb-01 13:34N 37°28' W 000°42'1414.0
2016-Feb-01 12:33N 37°39' W 000°30'1413.6
2016-Feb-01 11:33N 37°50' W 000°21'1413.6
2016-Feb-01 10:33N 38°02' W 000°11'1716.6
2016-Feb-01 09:33N 38°15' E 000°00'7312.2
2016-Feb-01 03:34N 39°27' W 000°19'0 0.1
2016-Feb-01 02:31N 39°27' W 000°19'0 0.0
2016-Feb-01 01:31N 39°27' W 000°19'0 0.0
2016-Feb-01 00:31N 39°27' W 000°19'0 0.0
2016-Jan-31 23:31N 39°27' W 000°19'0 0.0
2016-Jan-31 22:31N 39°27' W 000°19'0 0.0
2016-Jan-31 21:31N 39°27' W 000°19'0 0.0
2016-Jan-31 20:31N 39°27' W 000°19'0 0.0
2016-Jan-31 19:31N 39°27' W 000°19'0 0.0
2016-Jan-31 18:31N 39°27' W 000°19'0 0.0
2016-Jan-31 17:31N 39°27' W 000°19'0 0.0
2016-Jan-31 16:31N 39°27' W 000°19'6 5.9
2016-Jan-31 15:33N 39°27' W 000°12'3413.7
2016-Jan-31 13:05N 39°50' E 000°20'713.6
2016-Jan-31 12:33N 39°55' E 000°27'1313.4
2016-Jan-31 11:33N 40°05' E 000°40'1313.5
2016-Jan-31 10:33N 40°14' E 000°52'1313.1
2016-Jan-31 09:33N 40°22' E 001°05'1413.6
2016-Jan-31 08:33N 40°31' E 001°19'1613.9
2016-Jan-31 07:23N 40°42' E 001°35'1214.1
2016-Jan-31 06:33N 40°52' E 001°44'1413.6
2016-Jan-31 05:33N 41°02' E 001°55'1413.9
2016-Jan-31 04:34N 41°13' E 002°07'8 1.6
2016-Jan-30 23:29N 41°21' E 002°10'0 0.0
2016-Jan-30 18:29N 41°21' E 002°10'0 0.1
2016-Jan-30 17:34N 41°21' E 002°10'7 7.1
2016-Jan-30 16:33N 41°14' E 002°07'1414.3
2016-Jan-30 15:33N 41°09' E 001°49'1814.4
2016-Jan-30 14:18N 41°04' E 001°26'7 0.8
2016-Jan-30 05:14N 41°03' E 001°17'1015.5
2016-Jan-30 04:33N 41°04' E 001°30'1515.4
2016-Jan-30 03:33N 41°07' E 001°50'1615.6
2016-Jan-30 02:33N 41°10' E 002°11'1515.5
2016-Jan-30 01:33N 41°16' E 002°29'1715.8
2016-Jan-30 00:29N 41°24' E 002°49'1415.4
2016-Jan-29 23:33N 41°31' E 003°06'1615.7
2016-Jan-29 22:33N 41°38' E 003°25'  

Dump ship's entire track history